sensor_id;sensor_type;location;lat;lon;timestamp;pressure;altitude;pressure_sealevel;temperature;humidity
45369;BME280;51342;55.250;37.668;2023-10-13T00:05:36;98333.25;;;8.51;78.94
45369;BME280;51342;55.250;37.668;2023-10-13T00:08:10;98333.31;;;8.53;78.90
45369;BME280;51342;55.250;37.668;2023-10-13T00:10:42;98333.38;;;8.54;78.78
45369;BME280;51342;55.250;37.668;2023-10-13T00:13:14;98336.81;;;8.55;78.46
45369;BME280;51342;55.250;37.668;2023-10-13T00:15:50;98331.59;;;8.53;78.92
45369;BME280;51342;55.250;37.668;2023-10-13T00:18:31;98341.03;;;8.53;78.61
45369;BME280;51342;55.250;37.668;2023-10-13T00:21:05;98329.69;;;8.49;78.39
45369;BME280;51342;55.250;37.668;2023-10-13T00:24:06;98337.22;;;8.44;78.51
45369;BME280;51342;55.250;37.668;2023-10-13T00:26:43;98338.06;;;8.43;78.77
45369;BME280;51342;55.250;37.668;2023-10-13T00:29:14;98348.41;;;8.45;78.86
45369;BME280;51342;55.250;37.668;2023-10-13T00:31:49;98357.94;;;8.46;79.00
45369;BME280;51342;55.250;37.668;2023-10-13T00:34:23;98358.88;;;8.48;79.03
45369;BME280;51342;55.250;37.668;2023-10-13T00:37:03;98359.75;;;8.48;79.25
45369;BME280;51342;55.250;37.668;2023-10-13T00:39:50;98360.44;;;8.44;79.31
45369;BME280;51342;55.250;37.668;2023-10-13T00:42:27;98350.94;;;8.43;79.19
45369;BME280;51342;55.250;37.668;2023-10-13T00:45:19;98352.69;;;8.44;79.05
45369;BME280;51342;55.250;37.668;2023-10-13T00:47:50;98360.44;;;8.44;79.32
45369;BME280;51342;55.250;37.668;2023-10-13T00:50:28;98368.78;;;8.39;79.26
45369;BME280;51342;55.250;37.668;2023-10-13T00:53:01;98367.00;;;8.38;79.10
45369;BME280;51342;55.250;37.668;2023-10-13T00:55:33;98370.41;;;8.37;79.17
45369;BME280;51342;55.250;37.668;2023-10-13T00:58:05;98364.38;;;8.36;79.41
45369;BME280;51342;55.250;37.668;2023-10-13T01:00:39;98372.16;;;8.38;79.30
45369;BME280;51342;55.250;37.668;2023-10-13T01:03:19;98371.28;;;8.37;79.26
45369;BME280;51342;55.250;37.668;2023-10-13T01:05:57;98365.16;;;8.35;79.48
45369;BME280;51342;55.250;37.668;2023-10-13T01:08:33;98364.94;;;8.31;79.17
45369;BME280;51342;55.250;37.668;2023-10-13T01:11:09;98364.06;;;8.30;79.43
45369;BME280;51342;55.250;37.668;2023-10-13T01:13:41;98369.22;;;8.30;79.29
45369;BME280;51342;55.250;37.668;2023-10-13T01:16:13;98370.03;;;8.29;78.90
45369;BME280;51342;55.250;37.668;2023-10-13T01:18:44;98369.06;;;8.27;79.14
45369;BME280;51342;55.250;37.668;2023-10-13T01:21:19;98375.03;;;8.26;79.12
45369;BME280;51342;55.250;37.668;2023-10-13T01:23:51;98377.63;;;8.26;78.99
45369;BME280;51342;55.250;37.668;2023-10-13T01:26:22;98380.25;;;8.28;78.91
45369;BME280;51342;55.250;37.668;2023-10-13T01:28:58;98385.41;;;8.28;79.34
45369;BME280;51342;55.250;37.668;2023-10-13T01:31:29;98383.81;;;8.30;79.26
45369;BME280;51342;55.250;37.668;2023-10-13T01:34:02;98384.69;;;8.30;79.36
45369;BME280;51342;55.250;37.668;2023-10-13T01:36:33;98396.81;;;8.33;79.56
45369;BME280;51342;55.250;37.668;2023-10-13T01:39:10;98397.69;;;8.33;79.56
45369;BME280;51342;55.250;37.668;2023-10-13T01:41:42;98401.34;;;8.37;79.47
45369;BME280;51342;55.250;37.668;2023-10-13T01:44:14;98402.38;;;8.40;79.26
45369;BME280;51342;55.250;37.668;2023-10-13T01:46:50;98409.28;;;8.41;79.73
45369;BME280;51342;55.250;37.668;2023-10-13T01:49:22;98409.41;;;8.44;79.56
45369;BME280;51342;55.250;37.668;2023-10-13T01:51:54;98412.06;;;8.46;79.57
45369;BME280;51342;55.250;37.668;2023-10-13T01:54:25;98404.25;;;8.44;79.46
45369;BME280;51342;55.250;37.668;2023-10-13T01:56:57;98410.28;;;8.45;79.21
45369;BME280;51342;55.250;37.668;2023-10-13T01:59:30;98413.75;;;8.45;78.83
45369;BME280;51342;55.250;37.668;2023-10-13T02:02:02;98410.22;;;8.43;78.70
45369;BME280;51342;55.250;37.668;2023-10-13T02:04:33;98418.91;;;8.45;78.72
45369;BME280;51342;55.250;37.668;2023-10-13T02:07:04;98422.38;;;8.46;78.95
45369;BME280;51342;55.250;37.668;2023-10-13T02:09:39;98426.66;;;8.45;78.99
45369;BME280;51342;55.250;37.668;2023-10-13T02:12:11;98424.06;;;8.45;78.92
45369;BME280;51342;55.250;37.668;2023-10-13T02:14:42;98423.25;;;8.46;78.86
45369;BME280;51342;55.250;37.668;2023-10-13T02:17:15;98428.41;;;8.46;78.62
45369;BME280;51342;55.250;37.668;2023-10-13T02:19:47;98434.38;;;8.45;78.24
45369;BME280;51342;55.250;37.668;2023-10-13T02:22:19;98434.28;;;8.44;78.32
45369;BME280;51342;55.250;37.668;2023-10-13T02:24:59;98428.25;;;8.43;78.21
45369;BME280;51342;55.250;37.668;2023-10-13T02:27:37;98433.28;;;8.40;77.87
45369;BME280;51342;55.250;37.668;2023-10-13T02:30:14;98429.63;;;8.17;78.59
45369;BME280;51342;55.250;37.668;2023-10-13T02:32:46;98429.31;;;8.29;78.42
45369;BME280;51342;55.250;37.668;2023-10-13T02:35:17;98433.69;;;8.32;78.04
45369;BME280;51342;55.250;37.668;2023-10-13T02:37:48;98437.97;;;8.31;78.03
45369;BME280;51342;55.250;37.668;2023-10-13T02:40:25;98440.50;;;8.30;77.97
45369;BME280;51342;55.250;37.668;2023-10-13T02:42:57;98441.38;;;8.30;77.80
45369;BME280;51342;55.250;37.668;2023-10-13T02:45:29;98443.06;;;8.30;77.65
45369;BME280;51342;55.250;37.668;2023-10-13T02:48:00;98451.69;;;8.30;77.43
45369;BME280;51342;55.250;37.668;2023-10-13T02:50:55;98454.78;;;8.23;77.73
45369;BME280;51342;55.250;37.668;2023-10-13T02:53:27;98451.41;;;8.24;77.35
45369;BME280;51342;55.250;37.668;2023-10-13T02:55:59;98451.25;;;8.21;77.40
45369;BME280;51342;55.250;37.668;2023-10-13T02:58:36;98460.66;;;8.20;77.64
45369;BME280;51342;55.250;37.668;2023-10-13T03:01:10;98461.44;;;8.18;77.19
45369;BME280;51342;55.250;37.668;2023-10-13T03:03:51;98460.44;;;8.16;77.31
45369;BME280;51342;55.250;37.668;2023-10-13T03:06:25;98469.00;;;8.15;77.19
45369;BME280;51342;55.250;37.668;2023-10-13T03:09:09;98469.59;;;8.09;77.33
45369;BME280;51342;55.250;37.668;2023-10-13T03:11:49;98469.53;;;8.08;77.03
45369;BME280;51342;55.250;37.668;2023-10-13T03:14:22;98480.66;;;8.07;76.79
45369;BME280;51342;55.250;37.668;2023-10-13T03:17:03;98471.88;;;8.03;76.98
45369;BME280;51342;55.250;37.668;2023-10-13T03:19:46;98475.09;;;7.99;77.05
45369;BME280;51342;55.250;37.668;2023-10-13T03:22:20;98477.56;;;7.96;76.85
45369;BME280;51342;55.250;37.668;2023-10-13T03:25:02;98488.50;;;7.92;76.53
45369;BME280;51342;55.250;37.668;2023-10-13T03:27:37;98478.88;;;7.88;76.72
45369;BME280;51342;55.250;37.668;2023-10-13T03:30:12;98487.34;;;7.85;76.50
45369;BME280;51342;55.250;37.668;2023-10-13T03:32:47;98491.44;;;7.82;76.49
45369;BME280;51342;55.250;37.668;2023-10-13T03:35:26;98495.59;;;7.78;76.39
45369;BME280;51342;55.250;37.668;2023-10-13T03:38:09;98493.59;;;7.73;76.44
45369;BME280;51342;55.250;37.668;2023-10-13T03:40:50;98492.53;;;7.69;76.33
45369;BME280;51342;55.250;37.668;2023-10-13T03:43:38;98495.69;;;7.63;76.54
45369;BME280;51342;55.250;37.668;2023-10-13T03:46:38;98505.75;;;7.59;76.44
45369;BME280;51342;55.250;37.668;2023-10-13T03:49:12;98510.84;;;7.57;76.76
45369;BME280;51342;55.250;37.668;2023-10-13T03:51:44;98512.38;;;7.54;76.75
45369;BME280;51342;55.250;37.668;2023-10-13T03:54:16;98505.41;;;7.51;76.63
45369;BME280;51342;55.250;37.668;2023-10-13T03:56:47;98509.72;;;7.52;76.54
45369;BME280;51342;55.250;37.668;2023-10-13T03:59:23;98517.38;;;7.51;77.02
45369;BME280;51342;55.250;37.668;2023-10-13T04:01:55;98521.53;;;7.49;76.74
45369;BME280;51342;55.250;37.668;2023-10-13T04:04:33;98525.63;;;7.43;76.89
45369;BME280;51342;55.250;37.668;2023-10-13T04:07:15;98531.53;;;7.42;77.10
45369;BME280;51342;55.250;37.668;2023-10-13T04:10:07;98539.94;;;7.38;76.86
45369;BME280;51342;55.250;37.668;2023-10-13T04:12:57;98539.94;;;7.38;77.18
45369;BME280;51342;55.250;37.668;2023-10-13T04:15:47;98551.03;;;7.37;77.37
45369;BME280;51342;55.250;37.668;2023-10-13T04:18:46;98554.38;;;7.36;77.61
45369;BME280;51342;55.250;37.668;2023-10-13T04:21:26;98557.13;;;7.39;77.73
45369;BME280;51342;55.250;37.668;2023-10-13T04:24:11;98555.69;;;7.44;77.85
45369;BME280;51342;55.250;37.668;2023-10-13T04:26:49;98563.63;;;7.49;77.88
45369;BME280;51342;55.250;37.668;2023-10-13T04:29:40;98563.84;;;7.54;77.84
45369;BME280;51342;55.250;37.668;2023-10-13T04:32:30;98566.66;;;7.58;77.79
45369;BME280;51342;55.250;37.668;2023-10-13T04:35:06;98570.28;;;7.62;78.16
45369;BME280;51342;55.250;37.668;2023-10-13T04:37:43;98568.66;;;7.64;78.03
45369;BME280;51342;55.250;37.668;2023-10-13T04:40:42;98580.56;;;7.62;77.76
45369;BME280;51342;55.250;37.668;2023-10-13T04:43:29;98577.19;;;7.63;77.85
45369;BME280;51342;55.250;37.668;2023-10-13T04:46:04;98584.84;;;7.61;78.11
45369;BME280;51342;55.250;37.668;2023-10-13T04:48:54;98582.16;;;7.60;77.89
45369;BME280;51342;55.250;37.668;2023-10-13T04:51:31;98600.28;;;7.61;77.72
45369;BME280;51342;55.250;37.668;2023-10-13T04:54:21;98602.19;;;7.65;77.81
45369;BME280;51342;55.250;37.668;2023-10-13T04:57:23;98599.84;;;7.70;77.84
45369;BME280;51342;55.250;37.668;2023-10-13T05:00:05;98603.56;;;7.75;77.45
45369;BME280;51342;55.250;37.668;2023-10-13T05:02:43;98609.59;;;7.59;77.86
45369;BME280;51342;55.250;37.668;2023-10-13T05:05:32;98619.88;;;7.76;77.86
45369;BME280;51342;55.250;37.668;2023-10-13T05:08:22;98626.69;;;7.91;77.89
45369;BME280;51342;55.250;37.668;2023-10-13T05:11:12;98630.84;;;8.06;77.71
45369;BME280;51342;55.250;37.668;2023-10-13T05:14:02;98638.06;;;8.13;77.07
45369;BME280;51342;55.250;37.668;2023-10-13T05:16:52;98646.75;;;8.15;76.99
45369;BME280;51342;55.250;37.668;2023-10-13T05:19:41;98642.72;;;8.20;77.34
45369;BME280;51342;55.250;37.668;2023-10-13T05:22:31;98638.50;;;8.22;77.17
45369;BME280;51342;55.250;37.668;2023-10-13T05:25:21;98648.34;;;8.29;77.24
45369;BME280;51342;55.250;37.668;2023-10-13T05:28:11;98648.41;;;8.31;77.05
45369;BME280;51342;55.250;37.668;2023-10-13T05:31:02;98658.84;;;8.34;76.84
45369;BME280;51342;55.250;37.668;2023-10-13T05:33:52;98659.03;;;8.37;77.04
45369;BME280;51342;55.250;37.668;2023-10-13T05:36:42;98666.94;;;8.40;76.82
45369;BME280;51342;55.250;37.668;2023-10-13T05:39:32;98664.56;;;8.44;76.49
45369;BME280;51342;55.250;37.668;2023-10-13T05:42:22;98668.94;;;8.45;76.60
45369;BME280;51342;55.250;37.668;2023-10-13T05:45:12;98670.75;;;8.48;76.82
45369;BME280;51342;55.250;37.668;2023-10-13T05:48:16;98691.53;;;8.51;76.51
45369;BME280;51342;55.250;37.668;2023-10-13T05:51:00;98697.88;;;8.58;76.42
45369;BME280;51342;55.250;37.668;2023-10-13T05:53:50;98698.31;;;8.67;76.33
45369;BME280;51342;55.250;37.668;2023-10-13T05:56:49;98705.47;;;8.72;75.63
45369;BME280;51342;55.250;37.668;2023-10-13T05:59:38;98710.84;;;8.77;75.82
45369;BME280;51342;55.250;37.668;2023-10-13T06:02:28;98703.28;;;8.80;75.51
45369;BME280;51342;55.250;37.668;2023-10-13T06:05:18;98712.19;;;8.87;75.41
45369;BME280;51342;55.250;37.668;2023-10-13T06:08:08;98721.09;;;8.93;75.12
45369;BME280;51342;55.250;37.668;2023-10-13T06:11:02;98729.19;;;9.01;74.83
45369;BME280;51342;55.250;37.668;2023-10-13T06:13:52;98732.81;;;9.05;74.56
45369;BME280;51342;55.250;37.668;2023-10-13T06:16:56;98728.53;;;9.05;74.65
45369;BME280;51342;55.250;37.668;2023-10-13T06:19:46;98729.63;;;9.10;74.03
45369;BME280;51342;55.250;37.668;2023-10-13T06:22:35;98732.06;;;9.25;74.44
45369;BME280;51342;55.250;37.668;2023-10-13T06:25:25;98738.63;;;9.36;73.54
45369;BME280;51342;55.250;37.668;2023-10-13T06:28:15;98743.91;;;9.39;72.79
45369;BME280;51342;55.250;37.668;2023-10-13T06:31:11;98743.78;;;9.36;72.49
45369;BME280;51342;55.250;37.668;2023-10-13T06:33:56;98763.59;;;9.37;72.89
45369;BME280;51342;55.250;37.668;2023-10-13T06:36:28;98752.47;;;9.38;72.61
45369;BME280;51342;55.250;37.668;2023-10-13T06:38:59;98756.09;;;9.42;72.20
45369;BME280;51342;55.250;37.668;2023-10-13T06:42:03;98760.28;;;9.40;72.13
45369;BME280;51342;55.250;37.668;2023-10-13T06:44:34;98767.19;;;9.41;71.96
45369;BME280;51342;55.250;37.668;2023-10-13T06:47:06;98769.88;;;9.42;71.51
45369;BME280;51342;55.250;37.668;2023-10-13T06:49:41;98763.88;;;9.43;71.77
45369;BME280;51342;55.250;37.668;2023-10-13T06:52:14;98774.28;;;9.45;71.41
45369;BME280;51342;55.250;37.668;2023-10-13T06:54:49;98771.03;;;9.49;71.62
45369;BME280;51342;55.250;37.668;2023-10-13T06:57:21;98770.44;;;9.54;71.13
45369;BME280;51342;55.250;37.668;2023-10-13T06:59:52;98777.47;;;9.59;70.82
45369;BME280;51342;55.250;37.668;2023-10-13T07:02:25;98779.41;;;9.63;69.87
45369;BME280;51342;55.250;37.668;2023-10-13T07:05:05;98777.03;;;9.67;69.50
45369;BME280;51342;55.250;37.668;2023-10-13T07:07:43;98782.16;;;9.66;69.47
45369;BME280;51342;55.250;37.668;2023-10-13T07:10:15;98793.28;;;9.65;69.11
45369;BME280;51342;55.250;37.668;2023-10-13T07:12:50;98793.19;;;9.63;69.10
45369;BME280;51342;55.250;37.668;2023-10-13T07:15:26;98799.19;;;9.62;69.27
45369;BME280;51342;55.250;37.668;2023-10-13T07:17:58;98800.00;;;9.61;68.93
45369;BME280;51342;55.250;37.668;2023-10-13T07:20:36;98812.03;;;9.61;68.56
45369;BME280;51342;55.250;37.668;2023-10-13T07:23:15;98817.19;;;9.61;68.76
45369;BME280;51342;55.250;37.668;2023-10-13T07:25:54;98809.38;;;9.59;68.11
45369;BME280;51342;55.250;37.668;2023-10-13T07:28:29;98826.06;;;9.66;68.27
45369;BME280;51342;55.250;37.668;2023-10-13T07:31:03;98830.75;;;9.74;68.41
45369;BME280;51342;55.250;37.668;2023-10-13T07:33:35;98825.78;;;9.79;67.76
45369;BME280;51342;55.250;37.668;2023-10-13T07:36:08;98831.53;;;9.91;67.68
45369;BME280;51342;55.250;37.668;2023-10-13T07:38:46;98830.19;;;9.99;67.73
45369;BME280;51342;55.250;37.668;2023-10-13T07:41:31;98830.59;;;10.08;67.11
45369;BME280;51342;55.250;37.668;2023-10-13T07:44:03;98834.53;;;10.20;66.86
45369;BME280;51342;55.250;37.668;2023-10-13T07:46:36;98843.63;;;10.29;66.49
45369;BME280;51342;55.250;37.668;2023-10-13T07:49:08;98845.13;;;10.44;65.84
45369;BME280;51342;55.250;37.668;2023-10-13T07:51:46;98841.53;;;10.40;66.56
45369;BME280;51342;55.250;37.668;2023-10-13T07:54:20;98853.47;;;10.57;66.15
45369;BME280;51342;55.250;37.668;2023-10-13T07:56:54;98854.44;;;10.59;64.88
45369;BME280;51342;55.250;37.668;2023-10-13T07:59:26;98860.13;;;10.72;65.48
45369;BME280;51342;55.250;37.668;2023-10-13T08:01:59;98862.44;;;10.85;65.03
45369;BME280;51342;55.250;37.668;2023-10-13T08:04:43;98865.28;;;10.91;64.22
45369;BME280;51342;55.250;37.668;2023-10-13T08:07:15;98864.88;;;11.01;63.95
45369;BME280;51342;55.250;37.668;2023-10-13T08:09:46;98865.63;;;11.20;63.09
45369;BME280;51342;55.250;37.668;2023-10-13T08:12:22;98871.97;;;11.28;62.54
45369;BME280;51342;55.250;37.668;2023-10-13T08:14:54;98882.53;;;11.32;61.53
45369;BME280;51342;55.250;37.668;2023-10-13T08:17:43;98884.00;;;11.26;61.45
45369;BME280;51342;55.250;37.668;2023-10-13T08:20:15;98891.63;;;11.23;61.43
45369;BME280;51342;55.250;37.668;2023-10-13T08:22:48;98889.66;;;11.17;61.05
45369;BME280;51342;55.250;37.668;2023-10-13T08:25:20;98904.25;;;11.15;60.88
45369;BME280;51342;55.250;37.668;2023-10-13T08:28:12;98897.78;;;11.05;60.53
45369;BME280;51342;55.250;37.668;2023-10-13T08:31:05;98914.81;;;11.00;61.23
45369;BME280;51342;55.250;37.668;2023-10-13T08:33:53;98916.16;;;11.11;60.64
45369;BME280;51342;55.250;37.668;2023-10-13T08:36:36;98919.94;;;11.18;60.16
45369;BME280;51342;55.250;37.668;2023-10-13T08:39:12;98920.56;;;11.12;59.55
45369;BME280;51342;55.250;37.668;2023-10-13T08:42:04;98917.81;;;11.09;59.66
45369;BME280;51342;55.250;37.668;2023-10-13T08:44:47;98915.44;;;11.14;58.70
45369;BME280;51342;55.250;37.668;2023-10-13T08:47:23;98924.97;;;11.15;58.81
45369;BME280;51342;55.250;37.668;2023-10-13T08:50:00;98933.81;;;11.20;59.14
45369;BME280;51342;55.250;37.668;2023-10-13T08:52:41;98925.72;;;11.33;59.51
45369;BME280;51342;55.250;37.668;2023-10-13T08:55:20;98927.06;;;11.45;58.40
45369;BME280;51342;55.250;37.668;2023-10-13T08:58:19;98931.69;;;11.52;58.14
45369;BME280;51342;55.250;37.668;2023-10-13T09:00:59;98939.88;;;11.62;57.42
45369;BME280;51342;55.250;37.668;2023-10-13T09:03:43;98942.56;;;11.64;57.28
45369;BME280;51342;55.250;37.668;2023-10-13T09:06:14;98940.91;;;11.66;56.77
45369;BME280;51342;55.250;37.668;2023-10-13T09:08:50;98959.28;;;11.72;57.06
45369;BME280;51342;55.250;37.668;2023-10-13T09:11:39;98960.16;;;11.73;56.50
45369;BME280;51342;55.250;37.668;2023-10-13T09:14:42;98965.28;;;11.71;56.66
45369;BME280;51342;55.250;37.668;2023-10-13T09:17:15;98961.00;;;11.72;56.44
45369;BME280;51342;55.250;37.668;2023-10-13T09:19:51;98960.16;;;11.73;55.73
45369;BME280;51342;55.250;37.668;2023-10-13T09:22:30;98961.19;;;11.76;56.13
45369;BME280;51342;55.250;37.668;2023-10-13T09:25:07;98971.88;;;11.84;55.79
45369;BME280;51342;55.250;37.668;2023-10-13T09:27:48;98975.50;;;11.87;55.61
45369;BME280;51342;55.250;37.668;2023-10-13T09:30:23;98980.78;;;11.90;55.72
45369;BME280;51342;55.250;37.668;2023-10-13T09:33:02;98987.28;;;11.81;55.55
45369;BME280;51342;55.250;37.668;2023-10-13T09:35:40;98986.41;;;11.80;56.04
45369;BME280;51342;55.250;37.668;2023-10-13T09:38:13;98984.91;;;11.85;55.44
45369;BME280;51342;55.250;37.668;2023-10-13T09:40:46;98988.94;;;12.00;55.55
45369;BME280;51342;55.250;37.668;2023-10-13T09:43:38;98998.09;;;12.12;55.65
45369;BME280;51342;55.250;37.668;2023-10-13T09:46:10;99009.28;;;12.11;55.56
45369;BME280;51342;55.250;37.668;2023-10-13T09:48:49;99009.97;;;12.07;54.94
45369;BME280;51342;55.250;37.668;2023-10-13T09:51:38;99007.16;;;12.01;55.13
45369;BME280;51342;55.250;37.668;2023-10-13T09:54:36;99007.72;;;11.94;54.53
45369;BME280;51342;55.250;37.668;2023-10-13T09:57:17;99011.91;;;11.90;54.48
45369;BME280;51342;55.250;37.668;2023-10-13T10:00:18;99015.13;;;11.85;54.40
45369;BME280;51342;55.250;37.668;2023-10-13T10:03:23;99023.97;;;11.90;54.30
45369;BME280;51342;55.250;37.668;2023-10-13T10:06:21;99032.38;;;11.84;54.28
45369;BME280;51342;55.250;37.668;2023-10-13T10:09:07;99030.28;;;11.76;53.98
45369;BME280;51342;55.250;37.668;2023-10-13T10:18:03;99045.06;;;11.57;54.61
45369;BME280;51342;55.250;37.668;2023-10-13T10:20:48;99047.56;;;11.56;54.89
45369;BME280;51342;55.250;37.668;2023-10-13T10:23:26;99058.69;;;11.53;54.22
45369;BME280;51342;55.250;37.668;2023-10-13T10:26:16;99055.69;;;11.44;55.04
45369;BME280;51342;55.250;37.668;2023-10-13T10:28:59;99062.72;;;11.47;54.52
45369;BME280;51342;55.250;37.668;2023-10-13T10:31:49;99065.56;;;11.53;54.38
45369;BME280;51342;55.250;37.668;2023-10-13T10:34:30;99057.25;;;11.60;54.55
45369;BME280;51342;55.250;37.668;2023-10-13T10:37:06;99059.19;;;11.65;53.81
45369;BME280;51342;55.250;37.668;2023-10-13T10:39:42;99055.94;;;11.70;53.44
45369;BME280;51342;55.250;37.668;2023-10-13T10:42:40;99072.22;;;11.67;54.09
45369;BME280;51342;55.250;37.668;2023-10-13T10:45:14;99068.25;;;11.75;53.47
45369;BME280;51342;55.250;37.668;2023-10-13T10:47:55;99074.53;;;11.80;54.08
45369;BME280;51342;55.250;37.668;2023-10-13T10:50:31;99072.97;;;11.84;53.73
45369;BME280;51342;55.250;37.668;2023-10-13T10:53:10;99080.59;;;11.81;52.95
45369;BME280;51342;55.250;37.668;2023-10-13T10:55:43;99087.28;;;11.76;53.42
45369;BME280;51342;55.250;37.668;2023-10-13T10:58:19;99093.97;;;11.71;53.41
45369;BME280;51342;55.250;37.668;2023-10-13T11:01:05;99095.34;;;11.62;53.40
45369;BME280;51342;55.250;37.668;2023-10-13T11:04:03;99098.38;;;11.52;53.18
45369;BME280;51342;55.250;37.668;2023-10-13T11:06:54;99100.75;;;11.48;53.64
45369;BME280;51342;55.250;37.668;2023-10-13T11:09:30;99107.63;;;11.47;53.80
45369;BME280;51342;55.250;37.668;2023-10-13T11:12:10;99108.59;;;11.49;53.79
45369;BME280;51342;55.250;37.668;2023-10-13T11:15:04;99112.06;;;11.50;53.49
45369;BME280;51342;55.250;37.668;2023-10-13T11:17:49;99122.56;;;11.53;53.51
45369;BME280;51342;55.250;37.668;2023-10-13T11:20:31;99118.31;;;11.55;53.22
45369;BME280;51342;55.250;37.668;2023-10-13T11:23:16;99122.63;;;11.54;53.32
45369;BME280;51342;55.250;37.668;2023-10-13T11:25:57;99126.03;;;11.53;53.09
45369;BME280;51342;55.250;37.668;2023-10-13T11:28:35;99117.44;;;11.54;52.85
45369;BME280;51342;55.250;37.668;2023-10-13T11:31:12;99120.09;;;11.56;53.06
45369;BME280;51342;55.250;37.668;2023-10-13T11:33:52;99120.97;;;11.56;52.67
45369;BME280;51342;55.250;37.668;2023-10-13T11:36:33;99119.16;;;11.54;52.45
45369;BME280;51342;55.250;37.668;2023-10-13T11:39:08;99127.97;;;11.57;52.39
45369;BME280;51342;55.250;37.668;2023-10-13T11:41:45;99127.97;;;11.57;52.06
45369;BME280;51342;55.250;37.668;2023-10-13T11:44:29;99126.09;;;11.55;51.87
45369;BME280;51342;55.250;37.668;2023-10-13T11:47:09;99138.16;;;11.54;52.21
45369;BME280;51342;55.250;37.668;2023-10-13T11:50:01;99137.28;;;11.54;52.05
45369;BME280;51342;55.250;37.668;2023-10-13T11:52:39;99140.59;;;11.51;52.04
45369;BME280;51342;55.250;37.668;2023-10-13T11:55:14;99146.63;;;11.50;51.75
45369;BME280;51342;55.250;37.668;2023-10-13T11:57:53;99145.66;;;11.48;51.76
45369;BME280;51342;55.250;37.668;2023-10-13T12:00:31;99156.09;;;11.50;51.97
45369;BME280;51342;55.250;37.668;2023-10-13T12:03:30;99149.16;;;11.49;51.33
45369;BME280;51342;55.250;37.668;2023-10-13T12:06:27;99153.38;;;11.47;51.39
45369;BME280;51342;55.250;37.668;2023-10-13T12:09:13;99165.28;;;11.43;51.70
45369;BME280;51342;55.250;37.668;2023-10-13T12:11:55;99160.78;;;11.39;51.56
45369;BME280;51342;55.250;37.668;2023-10-13T12:14:33;99163.38;;;11.39;52.20
45369;BME280;51342;55.250;37.668;2023-10-13T12:17:10;99160.72;;;11.37;52.16
45369;BME280;51342;55.250;37.668;2023-10-13T12:19:44;99159.91;;;11.38;51.77
45369;BME280;51342;55.250;37.668;2023-10-13T12:22:26;99157.97;;;11.34;51.97
45369;BME280;51342;55.250;37.668;2023-10-13T12:25:07;99150.31;;;11.36;52.00
45369;BME280;51342;55.250;37.668;2023-10-13T12:28:07;99159.69;;;11.34;52.51
45369;BME280;51342;55.250;37.668;2023-10-13T12:30:56;99151.75;;;11.29;52.51
45369;BME280;51342;55.250;37.668;2023-10-13T12:33:41;99149.88;;;11.27;52.20
45369;BME280;51342;55.250;37.668;2023-10-13T12:36:15;99162.81;;;11.27;51.99
45369;BME280;51342;55.250;37.668;2023-10-13T12:38:53;99162.69;;;11.24;52.26
45369;BME280;51342;55.250;37.668;2023-10-13T12:41:41;99154.78;;;11.21;52.32
45369;BME280;51342;55.250;37.668;2023-10-13T12:44:51;99157.91;;;11.13;52.68
45369;BME280;51342;55.250;37.668;2023-10-13T12:47:42;99163.97;;;11.14;52.21
45369;BME280;51342;55.250;37.668;2023-10-13T12:50:37;99173.44;;;11.13;52.02
45369;BME280;51342;55.250;37.668;2023-10-13T12:53:42;99167.97;;;11.07;52.17
45369;BME280;51342;55.250;37.668;2023-10-13T12:56:20;99172.34;;;11.08;52.02
45369;BME280;51342;55.250;37.668;2023-10-13T12:59:01;99173.06;;;11.06;52.16
45369;BME280;51342;55.250;37.668;2023-10-13T13:01:41;99184.34;;;11.06;51.91
45369;BME280;51342;55.250;37.668;2023-10-13T13:04:24;99182.53;;;11.05;51.95
45369;BME280;51342;55.250;37.668;2023-10-13T13:07:10;99185.94;;;11.04;51.43
45369;BME280;51342;55.250;37.668;2023-10-13T13:09:49;99177.97;;;11.00;51.46
45369;BME280;51342;55.250;37.668;2023-10-13T13:12:26;99189.13;;;10.99;51.71
45369;BME280;51342;55.250;37.668;2023-10-13T13:15:03;99184.78;;;10.98;52.11
45369;BME280;51342;55.250;37.668;2023-10-13T13:17:41;99182.25;;;10.99;51.92
45369;BME280;51342;55.250;37.668;2023-10-13T13:20:15;99191.59;;;10.96;52.21
45369;BME280;51342;55.250;37.668;2023-10-13T13:23:01;99200.00;;;10.92;52.16
45369;BME280;51342;55.250;37.668;2023-10-13T13:25:42;99208.50;;;10.89;51.86
45369;BME280;51342;55.250;37.668;2023-10-13T13:28:15;99211.91;;;10.88;52.53
45369;BME280;51342;55.250;37.668;2023-10-13T13:30:48;99215.25;;;10.85;52.70
45369;BME280;51342;55.250;37.668;2023-10-13T13:33:25;99217.69;;;10.82;52.69
45369;BME280;51342;55.250;37.668;2023-10-13T13:36:05;99221.75;;;10.77;52.70
45369;BME280;51342;55.250;37.668;2023-10-13T13:38:42;99218.25;;;10.77;52.86
45369;BME280;51342;55.250;37.668;2023-10-13T13:41:37;99223.31;;;10.74;52.70
45369;BME280;51342;55.250;37.668;2023-10-13T13:44:18;99224.91;;;10.72;52.39
45369;BME280;51342;55.250;37.668;2023-10-13T13:46:52;99235.19;;;10.70;52.63
45369;BME280;51342;55.250;37.668;2023-10-13T13:49:29;99231.50;;;10.65;53.22
45369;BME280;51342;55.250;37.668;2023-10-13T13:52:17;99227.66;;;10.57;53.00
45369;BME280;51342;55.250;37.668;2023-10-13T13:54:54;99241.22;;;10.53;52.74
45369;BME280;51342;55.250;37.668;2023-10-13T13:57:36;99244.34;;;10.46;53.31
45369;BME280;51342;55.250;37.668;2023-10-13T14:00:11;99251.13;;;10.44;53.53
45369;BME280;51342;55.250;37.668;2023-10-13T14:03:01;99252.59;;;10.39;53.34
45369;BME280;51342;55.250;37.668;2023-10-13T14:06:04;99255.75;;;10.33;53.48
45369;BME280;51342;55.250;37.668;2023-10-13T14:08:39;99266.88;;;10.32;53.64
45369;BME280;51342;55.250;37.668;2023-10-13T14:11:15;99272.81;;;10.29;53.74
45369;BME280;51342;55.250;37.668;2023-10-13T14:13:56;99283.78;;;10.25;53.92
45369;BME280;51342;55.250;37.668;2023-10-13T14:16:34;99284.31;;;10.20;54.07